Time;durP1;ratioP1;P1;durP2;ratioP2;P2;SDS_P1;SDS_P2;PMS_P1;PMS_P2;Temp;Humidity;BMP_temperature;BMP_pressure;BME280_temperature;BME280_humidity;BME280_pressure;Samples;Min_cycle;Max_cycle;Signal;HPM_P1;HPM_P2
2022/07/05 00:09:57;;;;;;;0.68;0.52;;;;;;;18.90;81.46;101771.13;20869179;28;20061;-76
2022/07/05 00:19:59;;;;;;;0.60;0.60;;;;;;;18.98;81.27;101777.66;20881100;28;20481;-76
2022/07/05 00:30:00;;;;;;;0.70;0.60;;;;;;;18.91;81.06;101756.66;20900337;28;20048;-77
2022/07/05 00:40:03;;;;;;;0.77;0.52;;;;;;;18.45;80.84;101691.91;20882421;28;20535;-76
2022/07/05 00:50:05;;;;;;;0.90;0.55;;;;;;;18.94;80.59;101776.16;20883425;28;20136;-76
2022/07/05 01:00:07;;;;;;;0.73;0.63;;;;;;;18.88;80.65;101770.41;20883267;28;20055;-76
2022/07/05 01:10:09;;;;;;;0.80;0.50;;;;;;;18.77;80.52;101749.66;20881112;28;20041;-76
2022/07/05 01:20:11;;;;;;;1.00;0.70;;;;;;;18.93;80.41;101776.28;20880548;28;20067;-76
2022/07/05 01:30:13;;;;;;;1.40;0.70;;;;;;;18.91;80.28;101768.31;20880172;28;20041;-76
2022/07/05 01:40:15;;;;;;;0.70;0.60;;;;;;;18.91;80.14;101768.31;20876732;28;20049;-76
2022/07/05 01:50:19;;;;;;;0.85;0.60;;;;;;;18.89;79.94;101775.66;20878771;28;20521;-76
2022/07/05 02:00:20;;;;;;;0.63;0.60;;;;;;;18.90;80.06;101771.13;20922154;28;20052;-76
2022/07/05 02:10:22;;;;;;;1.15;0.60;;;;;;;18.89;79.76;101770.25;20924685;28;20053;-76
2022/07/05 02:20:24;;;;;;;0.80;0.80;;;;;;;18.88;79.63;101763.16;20796464;28;20096;-76
2022/07/05 02:30:26;;;;;;;0.70;0.70;;;;;;;18.87;79.56;101761.44;20773881;28;20052;-76
2022/07/05 02:40:28;;;;;;;0.75;0.70;;;;;;;18.28;79.45;101660.88;20787944;28;20053;-76
2022/07/05 02:50:31;;;;;;;0.95;0.75;;;;;;;18.77;79.40;101744.25;20811011;28;20045;-76
2022/07/05 03:00:33;;;;;;;0.75;0.60;;;;;;;18.78;79.43;101751.38;20920684;28;20094;-76
2022/07/05 03:10:35;;;;;;;1.23;0.70;;;;;;;18.67;79.13;101747.69;20975372;28;20048;-76
2022/07/05 03:20:39;;;;;;;1.17;0.83;;;;;;;18.67;79.04;101753.09;20975468;28;20052;-76
2022/07/05 03:30:42;;;;;;;0.85;0.77;;;;;;;18.83;79.04;101777.03;20956221;28;20075;-76
2022/07/05 03:40:44;;;;;;;1.08;0.80;;;;;;;18.82;78.79;101786.09;20972116;28;20397;-76
2022/07/05 03:50:46;;;;;;;1.20;0.63;;;;;;;18.81;78.51;101791.59;20966077;28;20049;-76
2022/07/05 04:00:48;;;;;;;0.70;0.63;;;;;;;18.76;78.44;101788.41;20944584;28;20139;-76
2022/07/05 04:10:54;;;;;;;0.70;0.70;;;;;;;18.81;78.51;101797.00;20970113;28;20101;-76
2022/07/05 04:20:56;;;;;;;1.08;0.95;;;;;;;18.72;78.30;101795.03;20937618;28;20040;-76
2022/07/05 04:30:58;;;;;;;1.08;0.70;;;;;;;18.80;78.20;101819.56;20968111;28;20078;-76
2022/07/05 04:41:03;;;;;;;;;;;;;;;18.79;78.14;101818.72;20966702;28;20039;-76
2022/07/05 04:51:07;;;;;;;0.70;0.65;;;;;;;18.60;78.29;101786.91;20924178;28;20352;-76
2022/07/05 05:01:09;;;;;;;1.05;0.80;;;;;;;18.79;78.18;101809.75;20808220;28;20076;-75
2022/07/05 05:11:11;;;;;;;1.10;0.80;;;;;;;18.82;78.88;101812.19;20799689;28;20049;-75
2022/07/05 05:21:12;;;;;;;2.15;0.90;;;;;;;18.77;80.41;101798.22;20821167;28;20048;-75
2022/07/05 05:31:14;;;;;;;2.63;0.93;;;;;;;18.82;80.41;101798.72;20873663;28;20135;-75
2022/07/05 05:41:15;;;;;;;2.70;0.93;;;;;;;18.88;79.15;101816.28;20853080;28;20498;-75
2022/07/05 05:51:17;;;;;;;1.45;1.00;;;;;;;18.87;78.94;101817.25;20823467;28;20099;-75
2022/07/05 06:01:19;;;;;;;1.52;0.93;;;;;;;18.95;78.88;101850.72;20787941;28;20069;-75
2022/07/05 06:11:21;;;;;;;0.93;0.90;;;;;;;18.80;79.12;101820.44;20750890;28;20049;-75
2022/07/05 06:21:22;;;;;;;2.80;1.00;;;;;;;18.96;79.43;101852.44;20767745;28;20065;-75
2022/07/05 06:31:24;;;;;;;0.70;0.70;;;;;;;18.98;79.37;101860.47;20829045;28;20064;-76
2022/07/05 06:41:25;;;;;;;1.63;1.00;;;;;;;18.99;79.46;101852.22;20840607;28;20062;-75
2022/07/05 06:51:27;;;;;;;0.77;0.70;;;;;;;18.97;79.61;101856.88;20857012;28;20404;-75
2022/07/05 07:01:29;;;;;;;1.23;1.00;;;;;;;19.03;79.53;101860.97;20876021;28;20059;-75
2022/07/05 07:11:32;;;;;;;1.65;0.90;;;;;;;19.04;79.61;101872.63;20873228;28;20076;-76
2022/07/05 07:21:34;;;;;;;2.20;1.17;;;;;;;19.08;79.58;101871.41;20863757;28;20045;-76
2022/07/05 07:31:36;;;;;;;0.82;0.77;;;;;;;19.13;79.92;101882.69;20880816;28;20184;-76
2022/07/05 07:41:37;;;;;;;1.13;0.82;;;;;;;19.21;79.83;101892.88;20858062;28;20402;-75
2022/07/05 07:51:40;;;;;;;1.83;0.80;;;;;;;19.08;79.99;101861.44;20905841;28;20049;-75
2022/07/05 08:01:41;;;;;;;1.90;0.90;;;;;;;19.34;79.62;101876.56;20833493;28;20049;-75
2022/07/05 08:11:47;;;;;;;0.97;0.60;;;;;;;19.45;79.68;101884.69;20790170;28;20049;-75
2022/07/05 08:21:48;;;;;;;2.97;0.90;;;;;;;19.42;79.43;101866.00;20803990;28;20045;-75
2022/07/05 08:31:51;;;;;;;0.93;0.68;;;;;;;19.50;79.01;101882.47;20798200;28;20044;-75
2022/07/05 08:41:54;;;;;;;1.10;0.45;;;;;;;19.35;79.01;101870.19;20840048;28;20057;-75
2022/07/05 08:51:56;;;;;;;0.88;0.70;;;;;;;19.45;78.81;101878.41;20900525;28;20041;-75
2022/07/05 09:01:59;;;;;;;3.53;0.80;;;;;;;19.50;78.28;101881.59;20871181;28;20521;-75
2022/07/05 09:12:01;;;;;;;0.43;0.43;;;;;;;19.48;77.92;101895.25;20801224;28;20057;-75
2022/07/05 09:22:23;;;;;;;1.83;0.65;;;;;;;19.50;77.98;101906.78;20836456;28;20064;-75
2022/07/05 09:32:25;;;;;;;1.23;0.68;;;;;;;19.48;77.77;101911.44;20811605;28;20142;-75
2022/07/05 09:42:26;;;;;;;1.92;0.70;;;;;;;19.46;77.53;101908.00;20773656;28;20037;-75
2022/07/05 09:52:33;;;;;;;1.05;0.50;;;;;;;19.42;77.82;101901.09;20797928;28;20044;-75
2022/07/05 10:02:40;;;;;;;1.42;0.50;;;;;;;19.46;78.41;101913.41;20849345;28;20047;-75
2022/07/05 10:12:43;;;;;;;1.02;0.50;;;;;;;19.42;78.36;101922.72;20771853;28;20041;-75
2022/07/05 10:22:46;;;;;;;1.30;0.60;;;;;;;19.17;78.20;101892.25;20770040;28;20131;-74
2022/07/05 10:32:48;;;;;;;0.50;0.50;;;;;;;19.40;78.18;101927.38;20853739;28;20058;-75
2022/07/05 10:42:55;;;;;;;1.00;0.55;;;;;;;19.41;77.77;101915.59;20889757;28;20400;-74
2022/07/05 10:53:03;;;;;;;0.52;0.40;;;;;;;19.32;77.69;101921.72;20820460;28;20059;-75
2022/07/05 11:03:37;;;;;;;1.25;0.50;;;;;;;19.39;77.70;101941.84;20873500;28;20106;-75
2022/07/05 11:13:43;;;;;;;0.95;0.68;;;;;;;19.29;77.81;101925.53;20874376;28;20057;-75
2022/07/05 11:23:45;;;;;;;0.65;0.50;;;;;;;19.36;77.62;101928.59;20883667;28;20041;-75
2022/07/05 11:33:50;;;;;;;0.63;0.52;;;;;;;19.40;77.83;101930.06;20878352;28;20409;-75
2022/07/05 11:43:56;;;;;;;1.17;0.40;;;;;;;19.39;77.77;101925.66;20886931;28;20045;-75
2022/07/05 11:53:58;;;;;;;2.05;0.50;;;;;;;19.43;77.65;101924.44;20864343;28;20460;-75
2022/07/05 12:04:27;;;;;;;0.30;0.30;;;;;;;19.43;77.70;101929.81;20853226;28;20063;-74
2022/07/05 12:14:29;;;;;;;1.40;0.60;;;;;;;19.25;77.59;101879.00;20857971;28;20440;-75
2022/07/05 12:24:30;;;;;;;2.13;0.60;;;;;;;19.46;77.48;101921.50;20870118;28;20450;-75
2022/07/05 12:34:32;;;;;;;0.73;0.65;;;;;;;19.48;77.45;101906.03;20856271;28;20057;-74
2022/07/05 12:44:33;;;;;;;1.00;0.50;;;;;;;19.49;77.75;101893.38;20838447;28;20057;-75
2022/07/05 13:04:55;;;;;;;1.00;0.50;;;;;;;19.45;75.21;101903.59;20854503;28;20060;-74
2022/07/05 13:14:57;;;;;;;0.95;0.60;;;;;;;19.46;75.38;101909.84;20779077;28;20064;-75
2022/07/05 13:24:59;;;;;;;1.10;0.40;;;;;;;19.17;75.32;101859.00;20808321;28;20551;-75
2022/07/05 13:35:01;;;;;;;0.50;0.50;;;;;;;19.46;75.15;101916.13;20852131;28;20053;-75
2022/07/05 13:45:02;;;;;;;2.50;0.50;;;;;;;19.47;75.18;101925.94;20856335;28;20106;-76
2022/07/05 13:55:04;;;;;;;1.10;0.55;;;;;;;19.44;75.17;101923.44;20820362;28;20555;-76
2022/07/05 14:05:06;;;;;;;1.10;0.40;;;;;;;19.50;75.62;101932.91;20868351;28;20068;-75
2022/07/05 14:15:08;;;;;;;1.83;0.57;;;;;;;19.43;75.71;101916.31;20852266;28;20052;-76
2022/07/05 14:25:10;;;;;;;0.85;0.50;;;;;;;19.50;75.52;101919.41;20846509;28;20071;-76
2022/07/05 14:35:11;;;;;;;1.40;0.50;;;;;;;19.50;75.71;101939.19;20803989;28;20053;-75
2022/07/05 14:45:13;;;;;;;2.05;1.08;;;;;;;19.50;76.34;101936.50;20866422;28;20129;-76
2022/07/05 14:55:15;;;;;;;1.98;0.95;;;;;;;19.50;76.90;101952.69;20815706;28;20064;-75
2022/07/05 15:05:17;;;;;;;4.80;1.60;;;;;;;19.47;77.25;101946.66;20844807;28;20156;-75
2022/07/05 15:15:18;;;;;;;2.72;1.50;;;;;;;19.48;77.00;101938.47;20785099;28;20049;-75
2022/07/05 15:25:20;;;;;;;4.47;1.60;;;;;;;19.41;77.65;101938.06;20817521;28;20505;-76
2022/07/05 15:35:21;;;;;;;2.92;1.05;;;;;;;19.42;77.27;101937.09;20892994;28;20130;-75
2022/07/05 15:45:23;;;;;;;3.17;1.20;;;;;;;19.48;77.67;101942.97;20872027;28;20142;-75
2022/07/05 15:55:24;;;;;;;3.25;1.05;;;;;;;19.47;78.18;101950.25;20879642;28;20551;-76
2022/07/05 16:05:26;;;;;;;1.73;0.82;;;;;;;19.50;78.32;101957.22;20884597;28;20056;-75
2022/07/05 16:26:03;;;;;;;2.85;0.90;;;;;;;19.49;78.03;101960.91;20795027;28;20044;-77
2022/07/05 16:36:06;;;;;;;5.30;1.05;;;;;;;19.46;78.35;101971.94;20829327;28;20437;-76
2022/07/05 16:46:08;;;;;;;1.38;0.75;;;;;;;19.42;78.52;101966.78;20917048;28;20467;-76
2022/07/05 16:56:11;;;;;;;3.28;0.90;;;;;;;19.36;78.40;101966.41;20811121;28;20493;-76
2022/07/05 17:06:14;;;;;;;2.70;0.80;;;;;;;19.36;78.47;101978.06;20796314;28;20497;-76
2022/07/05 17:16:17;;;;;;;2.22;1.10;;;;;;;19.32;78.23;101970.31;20796560;28;20660;-76
2022/07/05 17:26:24;;;;;;;2.38;0.82;;;;;;;19.32;78.24;101986.53;20795001;28;20076;-76
2022/07/05 17:36:30;;;;;;;3.03;0.80;;;;;;;19.31;78.10;101995.59;20773927;28;20041;-76
2022/07/05 17:46:32;;;;;;;3.00;0.70;;;;;;;19.28;77.96;101994.88;20789529;28;20083;-76
2022/07/05 17:56:34;;;;;;;1.30;0.80;;;;;;;19.26;77.53;101999.53;20795714;28;20045;-76
2022/07/05 18:06:35;;;;;;;2.53;0.65;;;;;;;19.25;77.35;102000.50;20797793;28;20049;-76
2022/07/05 18:16:37;;;;;;;1.45;0.70;;;;;;;19.24;77.45;102008.75;20799806;28;20490;-76
2022/07/05 18:26:39;;;;;;;1.00;0.60;;;;;;;19.11;77.36;101998.00;20795920;28;20465;-76
2022/07/05 18:37:00;;;;;;;1.17;0.70;;;;;;;19.22;76.87;102030.44;20828234;28;20533;-76
2022/07/05 18:47:02;;;;;;;0.73;0.70;;;;;;;19.21;76.55;102017.91;20797947;28;20033;-76
2022/07/05 18:57:04;;;;;;;0.82;0.63;;;;;;;19.20;76.05;102012.63;20795363;28;20073;-76
2022/07/05 19:17:26;;;;;;;0.68;0.57;;;;;;;19.17;76.15;102019.13;20795132;28;20141;-76
2022/07/05 19:27:28;;;;;;;1.50;0.50;;;;;;;18.99;75.85;101989.00;20813399;28;20049;-76
2022/07/05 19:37:29;;;;;;;1.58;0.52;;;;;;;19.16;75.90;102028.22;20808399;28;20076;-76
2022/07/05 19:47:33;;;;;;;1.38;0.60;;;;;;;19.16;75.91;102040.84;20791428;28;20056;-76
2022/07/05 19:57:35;;;;;;;2.67;0.73;;;;;;;19.03;75.80;102035.53;20791702;28;20041;-76
2022/07/05 20:07:36;;;;;;;1.58;0.63;;;;;;;19.14;75.64;102065.25;20806143;28;20516;-76
2022/07/05 20:17:38;;;;;;;1.00;0.57;;;;;;;18.95;75.55;102045.00;20787934;28;20045;-76
2022/07/05 20:27:39;;;;;;;1.98;0.70;;;;;;;18.95;75.46;102053.09;20810548;28;20049;-76
2022/07/05 20:37:41;;;;;;;1.77;0.50;;;;;;;19.11;75.36;102079.00;20949126;28;20131;-76
2022/07/05 20:47:43;;;;;;;1.13;0.73;;;;;;;18.76;75.34;102033.88;20967645;28;20524;-76
2022/07/05 20:57:44;;;;;;;0.60;0.55;;;;;;;19.09;75.29;102095.28;20967351;28;20106;-77
2022/07/05 21:07:46;;;;;;;2.05;0.90;;;;;;;19.09;75.36;102105.25;20968218;28;20094;-77
2022/07/05 21:17:47;;;;;;;1.50;0.60;;;;;;;19.02;75.41;102101.28;20967038;28;20508;-76
2022/07/05 21:27:49;;;;;;;1.15;0.63;;;;;;;19.06;75.26;102117.13;20883810;28;20052;-76
2022/07/05 21:37:51;;;;;;;0.90;0.52;;;;;;;18.94;75.43;102102.66;20963679;28;20044;-76
2022/07/05 21:47:53;;;;;;;0.73;0.50;;;;;;;19.05;75.50;102120.78;20963006;28;20049;-76
2022/07/05 21:57:54;;;;;;;0.88;0.52;;;;;;;19.05;75.40;102130.75;20963146;28;20036;-76
2022/07/05 22:07:56;;;;;;;1.40;0.70;;;;;;;19.04;75.36;102131.72;20962847;28;20090;-76
2022/07/05 22:17:57;;;;;;;0.85;0.60;;;;;;;18.88;75.57;102116.59;20961239;28;20075;-76
2022/07/05 22:27:59;;;;;;;0.80;0.50;;;;;;;19.02;75.40;102128.25;20948901;28;20102;-76
2022/07/05 22:38:01;;;;;;;1.75;0.60;;;;;;;19.01;75.15;102123.84;20963519;28;20040;-76
2022/07/05 22:48:02;;;;;;;0.40;0.40;;;;;;;18.88;75.33;102103.13;20962052;28;20041;-76
2022/07/05 22:58:04;;;;;;;1.25;0.80;;;;;;;18.99;75.33;102115.84;20970845;28;20102;-77
2022/07/05 23:08:06;;;;;;;0.47;0.47;;;;;;;18.94;75.18;102113.44;20977728;28;20048;-76
2022/07/05 23:18:07;;;;;;;1.30;0.63;;;;;;;18.97;75.50;102124.03;20977435;28;20048;-76
2022/07/05 23:28:09;;;;;;;1.02;0.60;;;;;;;18.96;75.39;102122.28;20960757;28;20048;-76
2022/07/05 23:38:11;;;;;;;0.47;0.40;;;;;;;18.84;75.55;102107.00;20975389;28;20047;-76
2022/07/05 23:48:12;;;;;;;0.93;0.50;;;;;;;18.93;75.46;102117.13;20975710;28;20054;-76
2022/07/05 23:58:14;;;;;;;0.60;0.43;;;;;;;18.90;75.46;102130.84;20973465;28;20045;-76
